FDX241 BGSF-CYDF
Flight info
| Callsign | FDX241 |
|---|---|
| Flight time | N/A |
| Altitude | 28000 |
| Route | BAVKO1B BAVKO Y67 MA/M079F320 DCT 58N055W/N0463F320 54N056W DCT MELDI DCT VIDSI |
| Aircraft | A306/H-SDE3FGHIRWY/LB1 |
Departure
| Time | 2026-04-19 21:19 |
|---|---|
| Airport | Kangerlussuaq International Airport (BGSF) |
Arrival
| Time | N/A |
|---|---|
| Airport | Deer Lake Airport (CYDF) |
| Time | Latitude | Longitude | Altitude | Speed | Heading |
|---|---|---|---|---|---|
| 2026-04-19 20:55 | 67.01871 | -50.69305 | 174 ft | 0 kts | 181° |
| 2026-04-19 21:14 | 67.01870 | -50.69305 | 174 ft | 0 kts | 181° |
| 2026-04-19 21:14 | 67.01852 | -50.69312 | 173 ft | 5 kts | 191° |
| 2026-04-19 21:15 | 67.01802 | -50.69316 | 173 ft | 10 kts | 173° |
| 2026-04-19 21:15 | 67.01727 | -50.69229 | 172 ft | 14 kts | 148° |
| 2026-04-19 21:15 | 67.01637 | -50.69104 | 175 ft | 15 kts | 142° |
| 2026-04-19 21:15 | 67.01642 | -50.68838 | 173 ft | 18 kts | 69° |
| 2026-04-19 21:16 | 67.01734 | -50.68647 | 174 ft | 10 kts | 354° |
| 2026-04-19 21:16 | 67.01734 | -50.68751 | 173 ft | 5 kts | 239° |
| 2026-04-19 21:16 | 67.01733 | -50.68755 | 173 ft | 0 kts | 239° |
| 2026-04-19 21:17 | 67.01728 | -50.68779 | 173 ft | 12 kts | 243° |
| 2026-04-19 21:17 | 67.01591 | -50.69434 | 174 ft | 77 kts | 241° |
| 2026-04-19 21:18 | 67.01226 | -50.71151 | 165 ft | 141 kts | 242° |
| 2026-04-19 21:18 | 67.00662 | -50.73772 | 329 ft | 186 kts | 241° |
| 2026-04-19 21:18 | 67.00087 | -50.76490 | 565 ft | 163 kts | 242° |
| 2026-04-19 21:18 | 66.99529 | -50.79250 | 754 ft | 186 kts | 243° |
| 2026-04-19 21:19 | 66.98932 | -50.82262 | 1202 ft | 192 kts | 242° |
| 2026-04-19 21:19 | 66.98269 | -50.85343 | 1635 ft | 201 kts | 240° |
| 2026-04-19 21:19 | 66.97541 | -50.88398 | 2287 ft | 202 kts | 237° |
| 2026-04-19 21:19 | 66.96738 | -50.91428 | 2817 ft | 211 kts | 233° |
| 2026-04-19 21:20 | 66.95848 | -50.94595 | 3139 ft | 232 kts | 231° |
| 2026-04-19 21:20 | 66.94846 | -50.98033 | 3453 ft | 252 kts | 229° |
| 2026-04-19 21:20 | 66.93788 | -51.01604 | 4203 ft | 253 kts | 229° |
| 2026-04-19 21:20 | 66.92727 | -51.05212 | 4961 ft | 255 kts | 229° |
| 2026-04-19 21:21 | 66.91678 | -51.08856 | 5822 ft | 254 kts | 229° |
| 2026-04-19 21:21 | 66.90680 | -51.12555 | 6700 ft | 253 kts | 231° |
| 2026-04-19 21:21 | 66.89733 | -51.16376 | 7467 ft | 258 kts | 232° |
| 2026-04-19 21:21 | 66.88803 | -51.20278 | 8136 ft | 264 kts | 232° |
| 2026-04-19 21:22 | 66.87889 | -51.24356 | 8947 ft | 265 kts | 233° |
| 2026-04-19 21:22 | 66.87026 | -51.28473 | 9803 ft | 264 kts | 233° |
| 2026-04-19 21:22 | 66.86157 | -51.32613 | 10518 ft | 268 kts | 234° |
| 2026-04-19 21:22 | 66.85345 | -51.36945 | 11126 ft | 275 kts | 237° |
| 2026-04-19 21:23 | 66.84578 | -51.41479 | 11708 ft | 282 kts | 239° |
| 2026-04-19 21:23 | 66.83832 | -51.46094 | 12417 ft | 283 kts | 239° |
| 2026-04-19 21:23 | 66.83113 | -51.50758 | 13127 ft | 284 kts | 242° |
| 2026-04-19 21:23 | 66.82472 | -51.55540 | 13714 ft | 289 kts | 244° |
| 2026-04-19 21:24 | 66.81898 | -51.60504 | 14199 ft | 297 kts | 247° |
| 2026-04-19 21:24 | 66.81390 | -51.65666 | 14681 ft | 305 kts | 250° |
| 2026-04-19 21:24 | 66.80981 | -51.70971 | 15261 ft | 309 kts | 254° |
| 2026-04-19 21:24 | 66.80694 | -51.76375 | 15881 ft | 310 kts | 257° |
| 2026-04-19 21:25 | 66.80503 | -51.81831 | 16450 ft | 312 kts | 260° |
| 2026-04-19 21:25 | 66.80386 | -51.87366 | 16929 ft | 316 kts | 262° |
| 2026-04-19 21:25 | 66.80332 | -51.92999 | 17357 ft | 323 kts | 264° |
| 2026-04-19 21:25 | 66.80330 | -51.98728 | 17836 ft | 327 kts | 265° |
| 2026-04-19 21:26 | 66.80355 | -52.04494 | 18413 ft | 326 kts | 266° |
| 2026-04-19 21:26 | 66.80404 | -52.10214 | 19012 ft | 324 kts | 266° |
| 2026-04-19 21:26 | 66.80471 | -52.15947 | 19572 ft | 323 kts | 266° |
| 2026-04-19 21:26 | 66.80522 | -52.21665 | 20017 ft | 327 kts | 266° |
| 2026-04-19 21:27 | 66.80639 | -52.27474 | 20398 ft | 334 kts | 270° |
| 2026-04-19 21:27 | 66.80941 | -52.33368 | 20795 ft | 340 kts | 275° |
| 2026-04-19 21:27 | 66.81449 | -52.39236 | 21306 ft | 341 kts | 279° |
| 2026-04-19 21:27 | 66.82083 | -52.45020 | 21903 ft | 338 kts | 281° |
| 2026-04-19 21:28 | 66.82789 | -52.50705 | 22417 ft | 339 kts | 283° |
| 2026-04-19 21:28 | 66.83547 | -52.56330 | 22720 ft | 345 kts | 284° |
| 2026-04-19 21:28 | 66.84345 | -52.62095 | 22992 ft | 351 kts | 284° |
| 2026-04-19 21:28 | 66.85166 | -52.67988 | 23405 ft | 352 kts | 284° |
| 2026-04-19 21:29 | 66.85982 | -52.73836 | 23911 ft | 350 kts | 283° |
| 2026-04-19 21:29 | 66.86712 | -52.79723 | 24284 ft | 348 kts | 276° |
| 2026-04-19 21:29 | 66.86929 | -52.85811 | 24458 ft | 348 kts | 263° |
| 2026-04-19 21:29 | 66.86509 | -52.91887 | 24605 ft | 350 kts | 249° |
| 2026-04-19 21:30 | 66.85444 | -52.97479 | 24776 ft | 355 kts | 234° |
| 2026-04-19 21:30 | 66.83784 | -53.02171 | 24906 ft | 362 kts | 220° |
| 2026-04-19 21:30 | 66.81616 | -53.05551 | 25060 ft | 372 kts | 205° |
| 2026-04-19 21:30 | 66.79081 | -53.07242 | 25193 ft | 385 kts | 190° |
| 2026-04-19 21:31 | 66.76357 | -53.07173 | 25337 ft | 398 kts | 179° |
| 2026-04-19 21:31 | 66.73581 | -53.06206 | 25474 ft | 407 kts | 175° |
| 2026-04-19 21:31 | 66.70771 | -53.04857 | 25592 ft | 414 kts | 174° |
| 2026-04-19 21:31 | 66.67932 | -53.03363 | 25710 ft | 420 kts | 173° |
| 2026-04-19 21:32 | 66.65047 | -53.01847 | 25826 ft | 426 kts | 173° |
| 2026-04-19 21:32 | 66.62126 | -53.00367 | 25914 ft | 431 kts | 174° |
| 2026-04-19 21:32 | 66.59170 | -52.98932 | 26005 ft | 435 kts | 174° |
| 2026-04-19 21:32 | 66.56174 | -52.97530 | 26103 ft | 440 kts | 174° |
| 2026-04-19 21:33 | 66.53148 | -52.96144 | 26197 ft | 445 kts | 174° |
| 2026-04-19 21:33 | 66.50087 | -52.94759 | 26350 ft | 447 kts | 174° |
| 2026-04-19 21:33 | 66.47010 | -52.93376 | 26456 ft | 452 kts | 175° |
| 2026-04-19 21:33 | 66.43907 | -52.91980 | 26612 ft | 454 kts | 175° |
| 2026-04-19 21:34 | 66.40799 | -52.90574 | 26806 ft | 455 kts | 175° |
| 2026-04-19 21:34 | 66.37673 | -52.89161 | 26978 ft | 457 kts | 175° |
| 2026-04-19 21:34 | 66.34539 | -52.87745 | 27207 ft | 458 kts | 175° |
| 2026-04-19 21:34 | 66.31407 | -52.86336 | 27459 ft | 457 kts | 175° |
| 2026-04-19 21:35 | 66.28279 | -52.84935 | 27664 ft | 457 kts | 175° |
| 2026-04-19 21:35 | 66.25179 | -52.83546 | 27684 ft | 447 kts | 175° |
| 2026-04-19 21:35 | 66.22143 | -52.82182 | 27689 ft | 440 kts | 175° |
| 2026-04-19 21:35 | 66.19136 | -52.80845 | 27684 ft | 438 kts | 175° |
| 2026-04-19 21:36 | 66.16132 | -52.79516 | 27697 ft | 439 kts | 175° |
| 2026-04-19 21:36 | 66.13122 | -52.78187 | 27693 ft | 439 kts | 175° |
| 2026-04-19 21:36 | 66.10117 | -52.76860 | 27692 ft | 440 kts | 175° |
| 2026-04-19 21:36 | 66.07103 | -52.75534 | 27692 ft | 440 kts | 175° |
| 2026-04-19 21:37 | 66.04087 | -52.74209 | 27695 ft | 441 kts | 175° |
| 2026-04-19 21:37 | 66.01068 | -52.72885 | 27692 ft | 441 kts | 175° |
| 2026-04-19 21:37 | 65.98051 | -52.71570 | 27692 ft | 441 kts | 175° |
| 2026-04-19 21:37 | 65.95027 | -52.70251 | 27693 ft | 442 kts | 176° |
| 2026-04-19 21:38 | 65.92033 | -52.68950 | 27695 ft | 444 kts | 176° |
| 2026-04-19 21:38 | 65.88981 | -52.67626 | 27692 ft | 446 kts | 176° |
| 2026-04-19 21:38 | 65.85926 | -52.66299 | 27694 ft | 447 kts | 176° |
| 2026-04-19 21:38 | 65.82862 | -52.64973 | 27685 ft | 447 kts | 176° |
| 2026-04-19 21:39 | 65.79802 | -52.63649 | 27694 ft | 447 kts | 176° |
| 2026-04-19 21:39 | 65.76732 | -52.62424 | 27691 ft | 444 kts | 179° |
| 2026-04-19 21:39 | 65.73672 | -52.62087 | 27686 ft | 437 kts | 187° |
| 2026-04-19 21:39 | 65.70678 | -52.62927 | 27690 ft | 430 kts | 197° |
| 2026-04-19 21:40 | 65.65065 | -52.67464 | 27693 ft | 424 kts | 206° |
| 2026-04-19 21:40 | 65.62337 | -52.70183 | 27694 ft | 423 kts | 207° |
| 2026-04-19 21:40 | 65.59634 | -52.72973 | 27696 ft | 423 kts | 208° |
| 2026-04-19 21:41 | 65.56924 | -52.75778 | 27690 ft | 423 kts | 208° |
| 2026-04-19 21:41 | 65.54218 | -52.78552 | 27697 ft | 423 kts | 207° |
| 2026-04-19 21:41 | 65.51508 | -52.81304 | 27690 ft | 422 kts | 207° |
| 2026-04-19 21:41 | 65.48797 | -52.84022 | 27693 ft | 423 kts | 207° |
| 2026-04-19 21:42 | 65.46076 | -52.86726 | 27693 ft | 422 kts | 207° |
| 2026-04-19 21:42 | 65.43369 | -52.89401 | 27693 ft | 422 kts | 206° |
| 2026-04-19 21:42 | 65.40564 | -52.91660 | 27693 ft | 427 kts | 200° |
| 2026-04-19 21:42 | 65.37648 | -52.93136 | 27694 ft | 430 kts | 196° |
| 2026-04-19 21:43 | 65.34693 | -52.94353 | 27692 ft | 431 kts | 195° |
| 2026-04-19 21:43 | 65.31732 | -52.95432 | 27690 ft | 431 kts | 194° |
| 2026-04-19 21:43 | 65.28760 | -52.96453 | 27692 ft | 432 kts | 194° |
| 2026-04-19 21:43 | 65.26791 | -52.97122 | 27693 ft | 432 kts | 194° |
| 2026-04-19 21:44 | 65.23811 | -52.98134 | 27693 ft | 432 kts | 194° |
| 2026-04-19 21:44 | 65.20843 | -52.99153 | 27692 ft | 431 kts | 194° |
| 2026-04-19 21:44 | 65.17871 | -53.00183 | 27694 ft | 431 kts | 194° |
| 2026-04-19 21:44 | 65.14901 | -53.01222 | 27692 ft | 431 kts | 194° |
| 2026-04-19 21:45 | 65.11936 | -53.02268 | 27693 ft | 431 kts | 194° |
| 2026-04-19 21:45 | 65.08968 | -53.03308 | 27693 ft | 431 kts | 194° |
| 2026-04-19 21:45 | 65.05995 | -53.04349 | 27693 ft | 432 kts | 194° |
| 2026-04-19 21:45 | 65.02058 | -53.05719 | 27692 ft | 432 kts | 194° |
| 2026-04-19 21:46 | 65.00050 | -53.06420 | 27692 ft | 432 kts | 194° |
| 2026-04-19 21:46 | 64.97074 | -53.07459 | 27690 ft | 432 kts | 194° |
| 2026-04-19 21:46 | 64.94101 | -53.08502 | 27692 ft | 432 kts | 194° |
| 2026-04-19 21:46 | 64.91122 | -53.09549 | 27693 ft | 432 kts | 194° |
| 2026-04-19 21:47 | 64.88146 | -53.10583 | 27693 ft | 432 kts | 194° |
| 2026-04-19 21:47 | 64.85211 | -53.11591 | 27693 ft | 432 kts | 194° |
| 2026-04-19 21:47 | 64.82231 | -53.12612 | 27693 ft | 433 kts | 194° |
| 2026-04-19 21:47 | 64.79248 | -53.13632 | 27693 ft | 433 kts | 194° |
| 2026-04-19 21:48 | 64.76260 | -53.14655 | 27691 ft | 433 kts | 194° |
| 2026-04-19 21:48 | 64.73280 | -53.15670 | 27692 ft | 433 kts | 194° |
| 2026-04-19 21:48 | 64.70298 | -53.16683 | 27694 ft | 433 kts | 194° |
| 2026-04-19 21:48 | 64.67317 | -53.17695 | 27693 ft | 433 kts | 194° |
| 2026-04-19 21:49 | 64.64336 | -53.18708 | 27692 ft | 433 kts | 194° |
| 2026-04-19 21:49 | 64.61347 | -53.19721 | 27692 ft | 434 kts | 194° |
| 2026-04-19 21:49 | 64.58364 | -53.20730 | 27695 ft | 434 kts | 194° |
| 2026-04-19 21:49 | 64.55376 | -53.21737 | 27693 ft | 433 kts | 194° |
| 2026-04-19 21:50 | 64.52395 | -53.22744 | 27692 ft | 433 kts | 194° |
| 2026-04-19 21:50 | 64.49413 | -53.23747 | 27691 ft | 433 kts | 194° |
| 2026-04-19 21:50 | 64.46427 | -53.24745 | 27693 ft | 433 kts | 195° |
| 2026-04-19 21:50 | 64.43446 | -53.25739 | 27692 ft | 433 kts | 195° |
| 2026-04-19 21:51 | 64.40462 | -53.26731 | 27692 ft | 433 kts | 194° |
| 2026-04-19 21:51 | 64.37479 | -53.27719 | 27693 ft | 433 kts | 195° |
| 2026-04-19 21:51 | 64.34494 | -53.28709 | 27692 ft | 434 kts | 195° |
| 2026-04-19 21:51 | 64.31506 | -53.29700 | 27692 ft | 434 kts | 195° |
| 2026-04-19 21:52 | 64.28520 | -53.30688 | 27693 ft | 434 kts | 195° |
| 2026-04-19 21:52 | 64.25533 | -53.31672 | 27693 ft | 434 kts | 195° |
| 2026-04-19 21:52 | 64.22539 | -53.32656 | 27692 ft | 434 kts | 195° |
| 2026-04-19 21:52 | 64.19554 | -53.33637 | 27690 ft | 434 kts | 195° |
| 2026-04-19 21:53 | 64.16571 | -53.34615 | 27692 ft | 433 kts | 195° |
| 2026-04-19 21:53 | 64.13582 | -53.35591 | 27693 ft | 433 kts | 195° |
| 2026-04-19 21:53 | 64.10599 | -53.36564 | 27691 ft | 433 kts | 195° |
| 2026-04-19 21:53 | 64.07612 | -53.37537 | 27701 ft | 433 kts | 195° |
| 2026-04-19 21:54 | 64.04632 | -53.38506 | 27703 ft | 433 kts | 195° |
| 2026-04-19 21:54 | 64.01642 | -53.39477 | 27700 ft | 433 kts | 195° |
| 2026-04-19 21:54 | 63.98661 | -53.40442 | 27701 ft | 433 kts | 195° |
| 2026-04-19 21:54 | 63.95716 | -53.41395 | 27699 ft | 434 kts | 195° |
| 2026-04-19 21:55 | 63.92724 | -53.42362 | 27700 ft | 435 kts | 195° |
| 2026-04-19 21:55 | 63.89728 | -53.43327 | 27703 ft | 436 kts | 195° |
| 2026-04-19 21:55 | 63.86725 | -53.44286 | 27704 ft | 436 kts | 195° |
| 2026-04-19 21:55 | 63.83725 | -53.45239 | 27702 ft | 435 kts | 195° |
| 2026-04-19 21:56 | 63.80721 | -53.46196 | 27702 ft | 435 kts | 195° |
| 2026-04-19 21:56 | 63.77683 | -53.47165 | 27702 ft | 436 kts | 195° |
| 2026-04-19 21:56 | 63.74682 | -53.48117 | 27703 ft | 435 kts | 195° |
| 2026-04-19 21:56 | 63.71720 | -53.49056 | 27702 ft | 436 kts | 195° |
| 2026-04-19 21:57 | 63.68680 | -53.50021 | 27698 ft | 436 kts | 195° |
| 2026-04-19 21:57 | 63.65679 | -53.50973 | 27702 ft | 435 kts | 195° |
| 2026-04-19 21:57 | 63.62674 | -53.51927 | 27702 ft | 436 kts | 195° |
| 2026-04-19 21:57 | 63.59674 | -53.52872 | 27702 ft | 435 kts | 195° |
| 2026-04-19 21:58 | 63.56717 | -53.53800 | 27702 ft | 435 kts | 195° |
| 2026-04-19 21:58 | 63.53713 | -53.54739 | 27702 ft | 435 kts | 195° |
| 2026-04-19 21:58 | 63.50712 | -53.55675 | 27703 ft | 435 kts | 195° |
| 2026-04-19 21:58 | 63.47712 | -53.56610 | 27703 ft | 436 kts | 195° |
| 2026-04-19 21:59 | 63.44720 | -53.57541 | 27703 ft | 436 kts | 195° |
| 2026-04-19 21:59 | 63.41706 | -53.58474 | 27703 ft | 437 kts | 195° |